Terminal Aerodrome Forecast
Issued by NWS Duluth, MN

Home | Current Version | Previous Version | Graphics & Text | Print | Product List | Glossary On
Versions: 1 2 3 4 5 6 7 8 9 10 11 12 13 14 15 16 17 18 19 20
688
FTUS43 KDLH 271233 AAA
TAFINL
TAF AMD
KINL 271233Z 2713/2812 00000KT P6SM SCT080
     FM271800 35004KT P6SM VCTS BKN080CB
     FM272100 35004KT P6SM VCSH SCT120
     FM272300 01004KT P6SM SCT130
     FM281100 00000KT 5SM BR SKC=

USA.gov is the U.S. government's official web portal to all federal, state and local government web resources and services.